Time;durP1;ratioP1;P1;durP2;ratioP2;P2;SDS_P1;SDS_P2;PMS_P1;PMS_P2;Temp;Humidity;BMP_temperature;BMP_pressure;BME280_temperature;BME280_humidity;BME280_pressure;Samples;Min_cycle;Max_cycle;Signal;HPM_P1;HPM_P2
2023/04/11 00:03:28;;;;;;;;;;;;;;;7.98;91.19141;100794.9;;;;-74
2023/04/11 00:08:31;;;;;;;;;;;;;;;7.97;91.20898;100791.6;;;;-74
2023/04/11 00:13:29;;;;;;;;;;;;;;;7.97;91.66992;100800.7;;;;-74
2023/04/11 00:18:30;;;;;;;;;;;;;;;7.94;91.60938;100798.4;;;;-74
2023/04/11 00:23:28;;;;;;;;;;;;;;;7.96;91.58008;100789.8;;;;-74
2023/04/11 00:28:32;;;;;;;;;;;;;;;7.98;91.55078;100798.4;;;;-73
2023/04/11 00:28:48;;;;;;;12.3;1.7;;;;;;;;;;;;;-74
2023/04/11 00:33:28;;;;;;;;;;;;;;;7.99;91.24609;100793;;;;-74
2023/04/11 00:38:28;;;;;;;;;;;;;;;8;91.35938;100804.5;;;;-74
2023/04/11 00:43:28;;;;;;;;;;;;;;;8.03;91.1875;100806.5;;;;-72
2023/04/11 00:48:29;;;;;;;;;;;;;;;8.03;91.15625;100806.3;;;;-73
2023/04/11 00:53:31;;;;;;;;;;;;;;;8.1;91.82813;100810.1;;;;-74
2023/04/11 00:58:28;;;;;;;;;;;;;;;8.08;91.34375;100809.2;;;;-74
2023/04/11 00:58:49;;;;;;;11.7;1.7;;;;;;;;;;;;;-74
2023/04/11 01:03:29;;;;;;;;;;;;;;;8.02;90.9248;100815.1;;;;-74
2023/04/11 01:08:29;;;;;;;;;;;;;;;7.96;90.63672;100812;;;;-74
2023/04/11 01:13:28;;;;;;;;;;;;;;;7.9;90.26367;100821.6;;;;-74
2023/04/11 01:18:28;;;;;;;;;;;;;;;7.85;90.31641;100810.5;;;;-75
2023/04/11 01:23:28;;;;;;;;;;;;;;;7.81;90.0459;100813;;;;-74
2023/04/11 01:28:28;;;;;;;;;;;;;;;7.77;89.7666;100815.9;;;;-74
2023/04/11 01:28:50;;;;;;;4.5;0.9;;;;;;;;;;;;;-74
2023/04/11 01:33:28;;;;;;;;;;;;;;;7.71;90.10352;100830.8;;;;-74
2023/04/11 01:38:28;;;;;;;;;;;;;;;7.66;90.12695;100831.5;;;;-73
2023/04/11 01:43:28;;;;;;;;;;;;;;;7.62;90.0957;100829.9;;;;-73
2023/04/11 01:48:31;;;;;;;;;;;;;;;7.6;89.7832;100831.5;;;;-74
2023/04/11 01:53:28;;;;;;;;;;;;;;;7.58;89.96777;100832.5;;;;-74
2023/04/11 01:58:28;;;;;;;;;;;;;;;7.59;89.79395;100837.8;;;;-75
2023/04/11 01:58:51;;;;;;;7.5;1;;;;;;;;;;;;;-73
2023/04/11 02:03:29;;;;;;;;;;;;;;;7.6;89.93848;100840.9;;;;-74
2023/04/11 02:08:28;;;;;;;;;;;;;;;7.56;90.50977;100843.1;;;;-74
2023/04/11 02:13:29;;;;;;;;;;;;;;;7.58;90.28613;100856;;;;-74
2023/04/11 02:18:28;;;;;;;;;;;;;;;7.59;89.9043;100856.8;;;;-74
2023/04/11 02:23:29;;;;;;;;;;;;;;;7.57;89.96387;100867.1;;;;-73
2023/04/11 02:28:28;;;;;;;;;;;;;;;7.58;90.12988;100870.8;;;;-74
2023/04/11 02:28:52;;;;;;;5.9;1;;;;;;;;;;;;;-74
2023/04/11 02:33:28;;;;;;;;;;;;;;;7.59;90.28711;100876.2;;;;-71
2023/04/11 02:38:29;;;;;;;;;;;;;;;7.58;90.49219;100879.1;;;;-73
2023/04/11 02:43:28;;;;;;;;;;;;;;;7.61;90.06152;100876;;;;-74
2023/04/11 02:48:28;;;;;;;;;;;;;;;7.57;90.13965;100887.8;;;;-74
2023/04/11 02:53:29;;;;;;;;;;;;;;;7.6;90.10156;100881.8;;;;-74
2023/04/11 02:58:30;;;;;;;;;;;;;;;7.57;89.95313;100881.1;;;;-74
2023/04/11 02:58:53;;;;;;;6.8;1.1;;;;;;;;;;;;;-73
2023/04/11 03:03:30;;;;;;;;;;;;;;;7.58;90.1875;100887;;;;-73
2023/04/11 03:08:28;;;;;;;;;;;;;;;7.6;90.13379;100888.7;;;;-75
2023/04/11 03:13:30;;;;;;;;;;;;;;;7.59;89.92578;100889.1;;;;-74
2023/04/11 03:18:29;;;;;;;;;;;;;;;7.56;89.75586;100895.5;;;;-75
2023/04/11 03:23:31;;;;;;;;;;;;;;;7.49;89.62012;100893.9;;;;-75
2023/04/11 03:28:28;;;;;;;;;;;;;;;7.45;89.46875;100898.2;;;;-74
2023/04/11 03:28:53;;;;;;;8.3;1.2;;;;;;;;;;;;;-76
2023/04/11 03:33:28;;;;;;;;;;;;;;;7.4;89.49023;100894.9;;;;-74
2023/04/11 03:38:28;;;;;;;;;;;;;;;7.35;89.4375;100894.9;;;;-74
2023/04/11 03:43:30;;;;;;;;;;;;;;;7.31;89.48242;100905.6;;;;-74
2023/04/11 03:48:29;;;;;;;;;;;;;;;7.28;89.18359;100908.8;;;;-73
2023/04/11 03:53:33;;;;;;;;;;;;;;;7.27;89.37598;100911.2;;;;-74
2023/04/11 03:58:35;;;;;;;;;;;;;;;7.22;89.16992;100914.8;;;;-75
2023/04/11 03:58:54;;;;;;;5.5;1.1;;;;;;;;;;;;;-73
2023/04/11 04:03:28;;;;;;;;;;;;;;;7.17;89.14746;100925.8;;;;-74
2023/04/11 04:08:36;;;;;;;;;;;;;;;7.12;88.91992;100926.4;;;;-73
2023/04/11 04:13:34;;;;;;;;;;;;;;;7.06;88.89551;100948.8;;;;-73
2023/04/11 04:18:29;;;;;;;;;;;;;;;6.98;88.98828;100946.5;;;;-74
2023/04/11 04:23:28;;;;;;;;;;;;;;;6.95;88.9502;100950.6;;;;-74
2023/04/11 04:28:28;;;;;;;;;;;;;;;6.93;88.7168;100959.6;;;;-73
2023/04/11 04:28:56;;;;;;;5.3;1.1;;;;;;;;;;;;;-74
2023/04/11 04:33:31;;;;;;;;;;;;;;;6.86;88.70117;100963.6;;;;-73
2023/04/11 04:38:29;;;;;;;;;;;;;;;6.81;88.58301;100973.5;;;;-74
2023/04/11 04:43:31;;;;;;;;;;;;;;;6.75;88.63574;100985.9;;;;-74
2023/04/11 04:48:28;;;;;;;;;;;;;;;6.7;88.35254;100989.6;;;;-74
2023/04/11 04:53:28;;;;;;;;;;;;;;;6.68;88.31445;101001.7;;;;-73
2023/04/11 04:58:28;;;;;;;;;;;;;;;6.64;88.18848;100994.2;;;;-74
2023/04/11 04:58:57;;;;;;;6.2;1;;;;;;;;;;;;;-74
2023/04/11 05:03:33;;;;;;;;;;;;;;;6.56;88.03906;101005.2;;;;-74
2023/04/11 05:08:35;;;;;;;;;;;;;;;6.56;88.0625;101010;;;;-75
2023/04/11 05:13:28;;;;;;;;;;;;;;;6.54;88.15527;101011.3;;;;-74
2023/04/11 05:18:31;;;;;;;;;;;;;;;6.54;87.86035;101016.4;;;;-74
2023/04/11 05:23:28;;;;;;;;;;;;;;;6.55;87.85059;101014.2;;;;-73
2023/04/11 05:28:28;;;;;;;;;;;;;;;6.55;88.03711;101021.8;;;;-72
2023/04/11 05:28:56;;;;;;;5.2;0.9;;;;;;;;;;;;;-73
2023/04/11 05:33:30;;;;;;;;;;;;;;;6.56;88.2793;101024.9;;;;-74
2023/04/11 05:38:34;;;;;;;;;;;;;;;6.62;87.94238;101044.6;;;;-73
2023/04/11 05:43:36;;;;;;;;;;;;;;;6.58;88.4375;101046.4;;;;-74
2023/04/11 05:48:28;;;;;;;;;;;;;;;6.62;88.22656;101057.1;;;;-73
2023/04/11 05:53:31;;;;;;;;;;;;;;;6.63;88.17383;101065.5;;;;-73
2023/04/11 05:58:33;;;;;;;;;;;;;;;6.8;89.07324;101074.9;;;;-74
2023/04/11 05:58:59;;;;;;;9;1.3;;;;;;;;;;;;;-72
2023/04/11 06:03:29;;;;;;;;;;;;;;;7.09;87.88477;101080;;;;-74
2023/04/11 06:08:33;;;;;;;;;;;;;;;7.42;87.12891;101078.7;;;;-74
2023/04/11 06:13:28;;;;;;;;;;;;;;;7.53;86.75586;101082.5;;;;-74
2023/04/11 06:18:32;;;;;;;;;;;;;;;7.83;85.73926;101093.9;;;;-74
2023/04/11 06:23:28;;;;;;;;;;;;;;;8.01;85.16113;101089.2;;;;-74
2023/04/11 06:28:31;;;;;;;;;;;;;;;8.17;84.56543;101089.7;;;;-73
2023/04/11 06:29:00;;;;;;;10.1;1.3;;;;;;;;;;;;;-74
2023/04/11 06:33:28;;;;;;;;;;;;;;;8.37;84.05469;101083.2;;;;-75
2023/04/11 06:38:28;;;;;;;;;;;;;;;8.37;84.05469;101096.9;;;;-73
2023/04/11 06:43:28;;;;;;;;;;;;;;;8.29;84.18164;101112.4;;;;-74
2023/04/11 06:48:28;;;;;;;;;;;;;;;8.19;84.8877;101113.1;;;;-73
2023/04/11 06:53:28;;;;;;;;;;;;;;;8.29;84.48926;101114.2;;;;-74
2023/04/11 06:58:28;;;;;;;;;;;;;;;8.44;84.09082;101116.4;;;;-74
2023/04/11 06:58:59;;;;;;;9.1;1.5;;;;;;;;;;;;;-74
2023/04/11 07:03:29;;;;;;;;;;;;;;;8.76;82.34668;101117.3;;;;-73
2023/04/11 07:08:30;;;;;;;;;;;;;;;9.01;81.43555;101128.7;;;;-75
2023/04/11 07:13:28;;;;;;;;;;;;;;;9.1;80.81348;101128.5;;;;-74
2023/04/11 07:18:29;;;;;;;;;;;;;;;9.01;81.29297;101135.6;;;;-76
2023/04/11 07:23:29;;;;;;;;;;;;;;;8.92;81.60645;101142.5;;;;-73
2023/04/11 07:28:30;;;;;;;;;;;;;;;8.84;81.93262;101156;;;;-74
2023/04/11 07:29:01;;;;;;;10;1.5;;;;;;;;;;;;;-75
2023/04/11 07:33:28;;;;;;;;;;;;;;;8.85;82.17676;101157.3;;;;-74
2023/04/11 07:38:32;;;;;;;;;;;;;;;8.91;81.8457;101164.1;;;;-73
2023/04/11 07:43:30;;;;;;;;;;;;;;;8.88;81.26758;101170.3;;;;-74
2023/04/11 07:48:29;;;;;;;;;;;;;;;8.94;80.99219;101176.7;;;;-73
2023/04/11 07:53:29;;;;;;;;;;;;;;;9.07;80.83789;101175.4;;;;-74
2023/04/11 07:58:29;;;;;;;;;;;;;;;9.3;79.83594;101200.3;;;;-73
2023/04/11 07:59:01;;;;;;;9.6;1.6;;;;;;;;;;;;;-74
2023/04/11 08:03:31;;;;;;;;;;;;;;;9.46;79.45605;101198.5;;;;-74
2023/04/11 08:08:33;;;;;;;;;;;;;;;9.74;77.57227;101203;;;;-73
2023/04/11 08:13:31;;;;;;;;;;;;;;;9.7;77.80859;101224.1;;;;-76
2023/04/11 08:18:32;;;;;;;;;;;;;;;9.67;77.53809;101224.9;;;;-75
2023/04/11 08:23:28;;;;;;;;;;;;;;;9.76;77.77539;101210;;;;-75
2023/04/11 08:28:28;;;;;;;;;;;;;;;10.13;76.51465;101223.5;;;;-75
2023/04/11 08:29:02;;;;;;;10.7;1.5;;;;;;;;;;;;;-74
2023/04/11 08:33:30;;;;;;;;;;;;;;;10.23;75.94531;101234.8;;;;-74
2023/04/11 08:38:36;;;;;;;;;;;;;;;10.31;76.08008;101245;;;;-73
2023/04/11 08:43:39;;;;;;;;;;;;;;;10.61;75.77734;101234.6;;;;-74
2023/04/11 08:48:28;;;;;;;;;;;;;;;10.74;74.82422;101238.8;;;;-74
2023/04/11 08:53:39;;;;;;;;;;;;;;;10.84;74.86328;101243.8;;;;-75
2023/04/11 08:58:28;;;;;;;;;;;;;;;10.89;74.01855;101250.2;;;;-73
2023/04/11 08:59:03;;;;;;;11.8;1.7;;;;;;;;;;;;;-72
2023/04/11 09:03:31;;;;;;;;;;;;;;;10.94;74.38281;101232.9;;;;-73
2023/04/11 09:08:39;;;;;;;;;;;;;;;11.38;73.33496;101246.5;;;;-73
2023/04/11 09:13:30;;;;;;;;;;;;;;;11.63;71.72168;101261.6;;;;-74
2023/04/11 09:18:39;;;;;;;;;;;;;;;11.77;70.9209;101255.4;;;;-73
2023/04/11 09:23:32;;;;;;;;;;;;;;;12.05;70.41895;101256.4;;;;-74
2023/04/11 09:28:28;;;;;;;;;;;;;;;12.47;69.62988;101258.2;;;;-74
2023/04/11 09:29:06;;;;;;;7.5;1.5;;;;;;;;;;;;;-73
2023/04/11 09:33:30;;;;;;;;;;;;;;;12.88;67.88574;101268.6;;;;-73
2023/04/11 09:38:38;;;;;;;;;;;;;;;12.9;65.97949;101253.2;;;;-73
2023/04/11 09:43:31;;;;;;;;;;;;;;;12.92;65.8252;101258.8;;;;-74
2023/04/11 09:48:29;;;;;;;;;;;;;;;13.29;65.94824;101262;;;;-73
2023/04/11 09:53:33;;;;;;;;;;;;;;;13.52;64.25879;101265.2;;;;-75
2023/04/11 09:58:30;;;;;;;;;;;;;;;13.68;63.44336;101269;;;;-74
2023/04/11 09:59:07;;;;;;;6.8;1.1;;;;;;;;;;;;;-73
2023/04/11 10:03:29;;;;;;;;;;;;;;;13.87;64.08691;101254.3;;;;-74
2023/04/11 10:08:31;;;;;;;;;;;;;;;14.14;62.57813;101282.4;;;;-73
2023/04/11 10:13:46;;;;;;;;;;;;;;;14.17;62.39258;101278.5;;;;-73
2023/04/11 10:18:29;;;;;;;;;;;;;;;14.44;62.83398;101281.1;;;;-73
2023/04/11 10:23:28;;;;;;;;;;;;;;;14.49;61.32617;101295;;;;-74
2023/04/11 10:28:41;;;;;;;;;;;;;;;14.47;62.41113;101292;;;;-73
2023/04/11 10:29:18;;;;;;;6.8;1.2;;;;;;;;;;;;;-73
2023/04/11 10:33:28;;;;;;;;;;;;;;;14.63;61.97559;101282.4;;;;-74
2023/04/11 10:38:39;;;;;;;;;;;;;;;14.82;61.37207;101294.1;;;;-73
2023/04/11 10:43:28;;;;;;;;;;;;;;;14.88;60.22363;101298.4;;;;-73
2023/04/11 10:48:31;;;;;;;;;;;;;;;14.93;59.46484;101307.9;;;;-73
2023/04/11 10:53:42;;;;;;;;;;;;;;;14.88;59.35742;101304.9;;;;-73
2023/04/11 10:58:37;;;;;;;;;;;;;;;14.99;61.30664;101307.7;;;;-74
2023/04/11 10:59:11;;;;;;;4.5;1.1;;;;;;;;;;;;;-74
2023/04/11 11:03:30;;;;;;;;;;;;;;;15.11;62.28809;101304.6;;;;-73
2023/04/11 11:08:34;;;;;;;;;;;;;;;15.13;62.16895;101308.7;;;;-73
2023/04/11 11:13:38;;;;;;;;;;;;;;;15.15;63.94727;101310.1;;;;-74
2023/04/11 11:18:30;;;;;;;;;;;;;;;15.22;61.78613;101315.1;;;;-73
2023/04/11 11:23:28;;;;;;;;;;;;;;;15.29;63.05664;101312.5;;;;-74
2023/04/11 11:28:31;;;;;;;;;;;;;;;15.56;63.45605;101308.4;;;;-73
2023/04/11 11:29:16;;;;;;;8.1;1.2;;;;;;;;;;;;;-72
2023/04/11 11:33:29;;;;;;;;;;;;;;;15.61;62.20117;101317.1;;;;-73
2023/04/11 11:38:29;;;;;;;;;;;;;;;15.62;64.14941;101318.1;;;;-73
2023/04/11 11:43:29;;;;;;;;;;;;;;;15.66;63.67188;101326;;;;-74
2023/04/11 11:48:30;;;;;;;;;;;;;;;15.61;63.23828;101335.4;;;;-74
2023/04/11 11:53:28;;;;;;;;;;;;;;;15.23;59.83203;101342.9;;;;-73
2023/04/11 11:58:28;;;;;;;;;;;;;;;15.59;64.77539;101335.6;;;;-74
2023/04/11 11:59:15;;;;;;;7.2;1.5;;;;;;;;;;;;;-73
2023/04/11 12:03:30;;;;;;;;;;;;;;;15.54;61.95605;101341.3;;;;-73
2023/04/11 12:08:28;;;;;;;;;;;;;;;15.84;64.75586;101347.8;;;;-74
2023/04/11 12:13:28;;;;;;;;;;;;;;;16.05;62.58105;101361.7;;;;-74
2023/04/11 12:18:33;;;;;;;;;;;;;;;15.82;62.36719;101361.7;;;;-73
2023/04/11 12:23:28;;;;;;;;;;;;;;;15.99;63.42676;101367.1;;;;-73
2023/04/11 12:28:28;;;;;;;;;;;;;;;16.02;63.29688;101370.9;;;;-75
2023/04/11 12:29:19;;;;;;;4.7;1.1;;;;;;;;;;;;;-73
2023/04/11 12:33:28;;;;;;;;;;;;;;;15.93;61.56055;101384.9;;;;-73
2023/04/11 12:38:32;;;;;;;;;;;;;;;16.06;62.50195;101371.2;;;;-73
2023/04/11 12:43:28;;;;;;;;;;;;;;;16.05;64.09863;101376.2;;;;-75
2023/04/11 12:48:35;;;;;;;;;;;;;;;16.37;66.34277;101384.2;;;;-73
2023/04/11 12:53:28;;;;;;;;;;;;;;;16.5;63.93945;101375.8;;;;-73
2023/04/11 12:58:28;;;;;;;;;;;;;;;16.59;65.13574;101381.4;;;;-73
2023/04/11 12:59:20;;;;;;;5.3;1.1;;;;;;;;;;;;;-73
2023/04/11 13:03:28;;;;;;;;;;;;;;;16.5;62.32715;101380.6;;;;-73
2023/04/11 13:08:30;;;;;;;;;;;;;;;16.77;66.00684;101381.6;;;;-73
2023/04/11 13:13:29;;;;;;;;;;;;;;;16.71;65.4248;101380.6;;;;-74
2023/04/11 13:18:28;;;;;;;;;;;;;;;16.84;63.67188;101373.4;;;;-73
2023/04/11 13:23:28;;;;;;;;;;;;;;;16.75;63.89746;101386.4;;;;-73
2023/04/11 13:28:39;;;;;;;;;;;;;;;16.67;65.15918;101380.2;;;;-73
2023/04/11 13:29:23;;;;;;;4.1;1;;;;;;;;;;;;;-75
2023/04/11 13:33:31;;;;;;;;;;;;;;;16.82;62.71191;101374.7;;;;-73
2023/04/11 13:38:28;;;;;;;;;;;;;;;16.75;62.29492;101383.6;;;;-73
2023/04/11 13:43:28;;;;;;;;;;;;;;;16.52;62.55566;101384.7;;;;-73
2023/04/11 13:48:28;;;;;;;;;;;;;;;16.54;62.64941;101366.1;;;;-73
2023/04/11 13:53:29;;;;;;;;;;;;;;;16.55;63.45117;101368.5;;;;-73
2023/04/11 13:58:31;;;;;;;;;;;;;;;16.51;62.10254;101381.8;;;;-74
2023/04/11 13:59:25;;;;;;;6.7;1.1;;;;;;;;;;;;;-73
2023/04/11 14:03:32;;;;;;;;;;;;;;;16.45;61.75684;101365.8;;;;-73
2023/04/11 14:08:32;;;;;;;;;;;;;;;16.18;61.76465;101358.9;;;;-74
2023/04/11 14:13:31;;;;;;;;;;;;;;;16.41;60.72559;101355.2;;;;-72
2023/04/11 14:18:28;;;;;;;;;;;;;;;16.55;62.03027;101345.8;;;;-73
2023/04/11 14:23:28;;;;;;;;;;;;;;;16.56;63.82422;101344.2;;;;-74
2023/04/11 14:28:28;;;;;;;;;;;;;;;16.69;63.21094;101343.8;;;;-74
2023/04/11 14:29:28;;;;;;;6.3;1.1;;;;;;;;;;;;;-73
2023/04/11 14:33:31;;;;;;;;;;;;;;;16.46;63.41602;101345.1;;;;-75
2023/04/11 14:38:28;;;;;;;;;;;;;;;16.22;60.87891;101331.9;;;;-74
2023/04/11 14:43:28;;;;;;;;;;;;;;;15.99;62.57031;101322.3;;;;-74
2023/04/11 14:48:31;;;;;;;;;;;;;;;16;61.87402;101322.3;;;;-74
2023/04/11 14:53:28;;;;;;;;;;;;;;;15.83;58.70703;101321.7;;;;-74
2023/04/11 14:58:28;;;;;;;;;;;;;;;15.74;60.35156;101318.6;;;;-74
2023/04/11 14:59:31;;;;;;;5.8;1;;;;;;;;;;;;;-72
2023/04/11 15:03:28;;;;;;;;;;;;;;;15.92;59.11426;101308.3;;;;-73
2023/04/11 15:08:28;;;;;;;;;;;;;;;15.74;60.20508;101302.5;;;;-74
2023/04/11 15:13:29;;;;;;;;;;;;;;;15.65;60.89063;101298.1;;;;-74
2023/04/11 15:18:29;;;;;;;;;;;;;;;15.46;59.88672;101287.9;;;;-72
2023/04/11 15:23:29;;;;;;;;;;;;;;;15.63;60.90039;101288.7;;;;-73
2023/04/11 15:28:29;;;;;;;;;;;;;;;15.6;59.48828;101287.2;;;;-72
2023/04/11 15:29:36;;;;;;;5.7;1;;;;;;;;;;;;;-72
2023/04/11 15:33:30;;;;;;;;;;;;;;;15.5;58.69629;101284;;;;-73
2023/04/11 15:38:29;;;;;;;;;;;;;;;15.39;60.34766;101285.5;;;;-73
2023/04/11 15:43:31;;;;;;;;;;;;;;;15.36;58.57715;101281.5;;;;-73
2023/04/11 15:48:28;;;;;;;;;;;;;;;15.26;60.25195;101270.8;;;;-73
2023/04/11 15:53:28;;;;;;;;;;;;;;;15.17;59.95898;101271.4;;;;-73
2023/04/11 15:58:29;;;;;;;;;;;;;;;14.98;57.43555;101264.4;;;;-73
2023/04/11 15:59:36;;;;;;;4.3;0.8;;;;;;;;;;;;;-75
2023/04/11 16:03:30;;;;;;;;;;;;;;;14.88;59.32422;101256.9;;;;-73
2023/04/11 16:08:38;;;;;;;;;;;;;;;14.69;58.66895;101251.1;;;;-74
2023/04/11 16:13:31;;;;;;;;;;;;;;;14.68;59.73438;101246.3;;;;-74
2023/04/11 16:18:28;;;;;;;;;;;;;;;14.62;58.41113;101230.2;;;;-75
2023/04/11 16:23:28;;;;;;;;;;;;;;;14.58;59.23828;101224.7;;;;-74
2023/04/11 16:28:29;;;;;;;;;;;;;;;14.54;60.12012;101215.7;;;;-74
2023/04/11 16:29:38;;;;;;;4.3;0.8;;;;;;;;;;;;;-74
2023/04/11 16:33:28;;;;;;;;;;;;;;;14.56;59.29102;101205.6;;;;-73
2023/04/11 16:38:30;;;;;;;;;;;;;;;14.56;60.25684;101206.7;;;;-74
2023/04/11 16:43:29;;;;;;;;;;;;;;;14.42;58.98047;101210.5;;;;-74
2023/04/11 16:48:29;;;;;;;;;;;;;;;14.24;58.14746;101200.1;;;;-74
2023/04/11 16:53:28;;;;;;;;;;;;;;;14.15;57.80957;101194.3;;;;-74
2023/04/11 16:58:28;;;;;;;;;;;;;;;14.16;59.14844;101182.7;;;;-73
2023/04/11 16:59:40;;;;;;;2.9;0.6;;;;;;;;;;;;;-73
2023/04/11 17:03:28;;;;;;;;;;;;;;;14;58.19336;101175.2;;;;-75
2023/04/11 17:08:28;;;;;;;;;;;;;;;13.87;57.62695;101165.1;;;;-73
2023/04/11 17:13:31;;;;;;;;;;;;;;;13.67;58.53223;101175.4;;;;-75
2023/04/11 17:18:28;;;;;;;;;;;;;;;13.48;58.49512;101168.7;;;;-74
2023/04/11 17:23:31;;;;;;;;;;;;;;;13.27;59.86816;101165;;;;-73
2023/04/11 17:28:30;;;;;;;;;;;;;;;13.09;59.44043;101161.8;;;;-73
2023/04/11 17:29:44;;;;;;;3.3;0.6;;;;;;;;;;;;;-73
2023/04/11 17:33:29;;;;;;;;;;;;;;;12.94;60.9541;101157.1;;;;-74
2023/04/11 17:38:28;;;;;;;;;;;;;;;12.77;60.87402;101151.3;;;;-73
2023/04/11 17:43:29;;;;;;;;;;;;;;;12.64;61.86133;101144.7;;;;-72
2023/04/11 17:48:28;;;;;;;;;;;;;;;12.53;62.26074;101137.3;;;;-73
2023/04/11 17:53:28;;;;;;;;;;;;;;;12.44;62.66016;101133.9;;;;-74
2023/04/11 17:58:30;;;;;;;;;;;;;;;12.31;61.98145;101137.2;;;;-74
2023/04/11 17:59:45;;;;;;;3.8;0.7;;;;;;;;;;;;;-73
2023/04/11 18:03:33;;;;;;;;;;;;;;;12.19;62.3457;101136.5;;;;-73
2023/04/11 18:08:33;;;;;;;;;;;;;;;12.06;62.87305;101134.1;;;;-73
2023/04/11 18:13:30;;;;;;;;;;;;;;;11.92;62.93359;101121.1;;;;-73
2023/04/11 18:18:28;;;;;;;;;;;;;;;11.78;63.94922;101111.7;;;;-74
2023/04/11 18:23:30;;;;;;;;;;;;;;;11.66;63.31738;101100.7;;;;-73
2023/04/11 18:28:29;;;;;;;;;;;;;;;11.54;63.76953;101092.5;;;;-73
2023/04/11 18:29:50;;;;;;;5.3;0.9;;;;;;;;;;;;;-74
2023/04/11 18:33:28;;;;;;;;;;;;;;;11.4;63.62598;101092.7;;;;-73
2023/04/11 18:38:29;;;;;;;;;;;;;;;11.28;63.29688;101090.6;;;;-73
2023/04/11 18:43:28;;;;;;;;;;;;;;;11.17;63.60449;101077.6;;;;-73
2023/04/11 18:48:30;;;;;;;;;;;;;;;11.09;64.08203;101075.9;;;;-74
2023/04/11 18:53:29;;;;;;;;;;;;;;;11.02;64.22754;101062.4;;;;-73
2023/04/11 18:58:31;;;;;;;;;;;;;;;10.91;64.01172;101057.7;;;;-73
2023/04/11 18:59:48;;;;;;;4.5;1.6;;;;;;;;;;;;;-73
2023/04/11 19:03:28;;;;;;;;;;;;;;;10.81;64.09668;101055;;;;-73
2023/04/11 19:08:28;;;;;;;;;;;;;;;10.72;64.14941;101051.2;;;;-74
2023/04/11 19:13:28;;;;;;;;;;;;;;;10.65;64.17383;101051.4;;;;-74
2023/04/11 19:18:28;;;;;;;;;;;;;;;10.56;64.71484;101039.7;;;;-74
2023/04/11 19:23:28;;;;;;;;;;;;;;;10.48;64.51465;101036.6;;;;-75
2023/04/11 19:28:28;;;;;;;;;;;;;;;10.43;64.65332;101040.7;;;;-73
2023/04/11 19:29:49;;;;;;;7.4;1.5;;;;;;;;;;;;;-73
2023/04/11 19:33:30;;;;;;;;;;;;;;;10.38;64.7666;101032.4;;;;-74
2023/04/11 19:38:33;;;;;;;;;;;;;;;10.33;65.02637;101025.9;;;;-73
2023/04/11 19:43:28;;;;;;;;;;;;;;;10.27;64.8623;101012.7;;;;-74
2023/04/11 19:48:33;;;;;;;;;;;;;;;10.2;65.35254;100999.2;;;;-74
2023/04/11 19:53:34;;;;;;;;;;;;;;;10.15;65.47754;100983.3;;;;-73
2023/04/11 19:58:28;;;;;;;;;;;;;;;10.09;65.74512;100972.4;;;;-73
2023/04/11 19:59:51;;;;;;;6;1.4;;;;;;;;;;;;;-73
2023/04/11 20:03:28;;;;;;;;;;;;;;;10.06;65.74121;100962.1;;;;-73
2023/04/11 20:08:35;;;;;;;;;;;;;;;9.99;66.00879;100949.2;;;;-73
2023/04/11 20:13:28;;;;;;;;;;;;;;;9.94;66.31152;100932;;;;-73
2023/04/11 20:18:28;;;;;;;;;;;;;;;9.89;66.18066;100922.3;;;;-75
2023/04/11 20:23:28;;;;;;;;;;;;;;;9.86;66.59863;100915.9;;;;-73
2023/04/11 20:28:29;;;;;;;;;;;;;;;9.8;66.76758;100895.6;;;;-74
2023/04/11 20:29:54;;;;;;;5.6;1.1;;;;;;;;;;;;;-72
2023/04/11 20:33:29;;;;;;;;;;;;;;;9.76;67.09277;100885.9;;;;-73
2023/04/11 20:38:30;;;;;;;;;;;;;;;9.71;67.18457;100869.1;;;;-74
2023/04/11 20:43:29;;;;;;;;;;;;;;;9.69;67.18164;100868.3;;;;-73
2023/04/11 20:48:30;;;;;;;;;;;;;;;9.68;67.46973;100861.1;;;;-74
2023/04/11 20:53:28;;;;;;;;;;;;;;;9.67;67.59961;100843.5;;;;-74
2023/04/11 20:58:31;;;;;;;;;;;;;;;9.66;67.91992;100827.7;;;;-71
2023/04/11 20:59:55;;;;;;;5.9;1.3;;;;;;;;;;;;;-73
2023/04/11 21:03:30;;;;;;;;;;;;;;;9.65;68.05176;100818.6;;;;-74
2023/04/11 21:08:29;;;;;;;;;;;;;;;9.62;68.28027;100803.9;;;;-72
2023/04/11 21:13:28;;;;;;;;;;;;;;;9.62;68.45703;100801.6;;;;-74
2023/04/11 21:18:28;;;;;;;;;;;;;;;9.62;68.71094;100797.3;;;;-73
2023/04/11 21:23:28;;;;;;;;;;;;;;;9.64;69.80078;100793.6;;;;-74
2023/04/11 21:28:28;;;;;;;;;;;;;;;9.63;68.86719;100779;;;;-73
2023/04/11 21:29:55;;;;;;;5.6;1.6;;;;;;;;;;;;;-74
2023/04/11 21:33:28;;;;;;;;;;;;;;;9.6;68.9082;100771;;;;-75
2023/04/11 21:38:30;;;;;;;;;;;;;;;9.61;69.18555;100760.3;;;;-74
2023/04/11 21:43:28;;;;;;;;;;;;;;;9.65;69.72461;100757.3;;;;-74
2023/04/11 21:48:28;;;;;;;;;;;;;;;9.64;70.08887;100755;;;;-74
2023/04/11 21:53:29;;;;;;;;;;;;;;;9.66;70.75586;100743.7;;;;-73
2023/04/11 21:58:28;;;;;;;;;;;;;;;9.68;71.29004;100743.3;;;;-74
2023/04/11 21:59:56;;;;;;;8.5;1.7;;;;;;;;;;;;;-72
2023/04/11 22:03:28;;;;;;;;;;;;;;;9.67;71.61035;100732.9;;;;-72
2023/04/11 22:08:28;;;;;;;;;;;;;;;9.64;72.03711;100718.9;;;;-74
2023/04/11 22:13:30;;;;;;;;;;;;;;;9.62;71.82227;100709.3;;;;-73
2023/04/11 22:18:29;;;;;;;;;;;;;;;9.58;73.06641;100697.5;;;;-74
2023/04/11 22:23:30;;;;;;;;;;;;;;;9.53;72.5166;100691.6;;;;-72
2023/04/11 22:28:28;;;;;;;;;;;;;;;9.5;73.24121;100692.5;;;;-73
2023/04/11 22:30:01;;;;;;;10.1;1.6;;;;;;;;;;;;;-72
2023/04/11 22:33:28;;;;;;;;;;;;;;;9.45;73.57617;100688.9;;;;-75
2023/04/11 22:38:30;;;;;;;;;;;;;;;9.4;74.37402;100675;;;;-73
2023/04/11 22:43:29;;;;;;;;;;;;;;;9.37;74.47949;100664.6;;;;-74
2023/04/11 22:48:28;;;;;;;;;;;;;;;9.33;74.34082;100651.9;;;;-74
2023/04/11 22:53:31;;;;;;;;;;;;;;;9.27;75.08203;100641;;;;-74
2023/04/11 22:58:28;;;;;;;;;;;;;;;9.2;75.86621;100634.7;;;;-74
2023/04/11 23:00:01;;;;;;;6;2;;;;;;;;;;;;;-73
2023/04/11 23:03:28;;;;;;;;;;;;;;;9.18;75.65332;100621.2;;;;-74
2023/04/11 23:08:28;;;;;;;;;;;;;;;9.15;75.75684;100610;;;;-74
2023/04/11 23:13:28;;;;;;;;;;;;;;;9.11;75.92773;100604;;;;-74
2023/04/11 23:18:33;;;;;;;;;;;;;;;9.09;75.7793;100589.4;;;;-73
2023/04/11 23:23:31;;;;;;;;;;;;;;;9.05;76.61133;100581.9;;;;-74
2023/04/11 23:28:28;;;;;;;;;;;;;;;9.02;76.92578;100560.6;;;;-73
2023/04/11 23:30:00;;;;;;;8.6;3;;;;;;;;;;;;;-73
2023/04/11 23:33:29;;;;;;;;;;;;;;;9;77.27539;100554.5;;;;-72
2023/04/11 23:38:28;;;;;;;;;;;;;;;8.98;77.31738;100531.1;;;;-73
2023/04/11 23:43:29;;;;;;;;;;;;;;;8.92;78.51953;100517;;;;-73
2023/04/11 23:48:28;;;;;;;;;;;;;;;8.91;78.19824;100510.5;;;;-73
2023/04/11 23:53:28;;;;;;;;;;;;;;;8.88;82.37109;100496.6;;;;-73
2023/04/11 23:58:28;;;;;;;;;;;;;;;8.83;80.75;100482;;;;-74
